Time;durP1;ratioP1;P1;durP2;ratioP2;P2;SDS_P1;SDS_P2;PMS_P1;PMS_P2;Temp;Humidity;BMP_temperature;BMP_pressure;BME280_temperature;BME280_humidity;BME280_pressure;Samples;Min_cycle;Max_cycle;Signal;HPM_P1;HPM_P2
2022/10/09 00:01:15;;;;;;;10.23;3.60;;;;;;;;;;4996762;28;20026;-83
2022/10/09 00:03:43;;;;;;;7.53;3.55;;;;;;;;;;4985579;28;20505;-84
2022/10/09 00:06:11;;;;;;;6.20;3.03;;;;;;;;;;5002158;28;20041;-83
2022/10/09 00:08:38;;;;;;;6.80;3.42;;;;;;;;;;4988912;28;20398;-83
2022/10/09 00:11:10;;;;;;;6.15;3.20;;;;;;;;;;5003617;28;20030;-83
2022/10/09 00:13:36;;;;;;;6.35;3.25;;;;;;;;;;4978313;28;20030;-83
2022/10/09 00:16:04;;;;;;;7.28;3.60;;;;;;;;;;4999225;28;20045;-83
2022/10/09 00:18:29;;;;;;;6.38;3.38;;;;;;;;;;4982671;28;20035;-83
2022/10/09 00:20:55;;;;;;;9.35;3.53;;;;;;;;;;5003463;28;20026;-83
2022/10/09 00:23:20;;;;;;;7.10;3.70;;;;;;;;;;4988239;28;20053;-83
2022/10/09 00:26:00;;;;;;;6.93;3.58;;;;;;;;;;4992619;28;20121;-83
2022/10/09 00:28:28;;;;;;;8.25;3.60;;;;;;;;;;4984754;28;20065;-84
2022/10/09 00:30:54;;;;;;;6.43;3.45;;;;;;;;;;4992925;28;20487;-83
2022/10/09 00:33:20;;;;;;;6.60;3.05;;;;;;;;;;5006901;28;20030;-83
2022/10/09 00:35:46;;;;;;;5.95;2.90;;;;;;;;;;4994908;28;20523;-83
2022/10/09 00:38:12;;;;;;;5.40;3.00;;;;;;;;;;5000062;28;20121;-83
2022/10/09 00:40:37;;;;;;;6.15;3.13;;;;;;;;;;5011802;28;20101;-83
2022/10/09 00:43:05;;;;;;;6.22;2.90;;;;;;;;;;4994913;28;20481;-83
2022/10/09 00:45:31;;;;;;;6.50;3.00;;;;;;;;;;5008850;28;20101;-83
2022/10/09 00:48:00;;;;;;;5.65;3.00;;;;;;;;;;4992278;28;20033;-83
2022/10/09 00:50:34;;;;;;;7.47;3.35;;;;;;;;;;5005923;28;20034;-83
2022/10/09 00:53:02;;;;;;;7.97;3.03;;;;;;;;;;4989951;28;20034;-83
2022/10/09 00:55:28;;;;;;;7.32;3.40;;;;;;;;;;5012152;28;20390;-83
2022/10/09 00:57:56;;;;;;;5.32;3.00;;;;;;;;;;5001431;28;20535;-83
2022/10/09 01:00:22;;;;;;;7.03;3.17;;;;;;;;;;5004509;28;20363;-83
2022/10/09 01:02:47;;;;;;;5.72;3.00;;;;;;;;;;4996667;28;20076;-83
2022/10/09 01:05:13;;;;;;;7.55;3.15;;;;;;;;;;4987690;28;20037;-83
2022/10/09 01:07:46;;;;;;;9.07;3.72;;;;;;;;;;5001664;28;20104;-83
2022/10/09 01:10:30;;;;;;;;;;;;;;;;;;5010325;28;20485;-83
2022/10/09 01:13:26;;;;;;;5.30;2.97;;;;;;;;;;4999673;28;19913;-83
2022/10/09 01:16:06;;;;;;;7.13;3.28;;;;;;;;;;4985440;28;20038;-83
2022/10/09 01:18:35;;;;;;;8.05;3.80;;;;;;;;;;5003155;28;21881;-83
2022/10/09 01:21:10;;;;;;;6.57;2.97;;;;;;;;;;5001107;28;20038;-83
2022/10/09 01:23:50;;;;;;;6.38;3.03;;;;;;;;;;4997870;28;20504;-83
2022/10/09 01:26:34;;;;;;;6.20;3.13;;;;;;;;;;5001993;28;20034;-83
2022/10/09 01:29:09;;;;;;;5.28;2.97;;;;;;;;;;5000752;28;20049;-83
2022/10/09 01:31:38;;;;;;;4.68;2.97;;;;;;;;;;5000641;28;21025;-83
2022/10/09 01:34:05;;;;;;;6.68;3.40;;;;;;;;;;4985888;28;20046;-83
2022/10/09 01:36:32;;;;;;;9.35;3.50;;;;;;;;;;5002371;28;20050;-83
2022/10/09 01:39:00;;;;;;;8.30;3.58;;;;;;;;;;4980260;28;20128;-83
2022/10/09 01:41:26;;;;;;;6.25;3.08;;;;;;;;;;5002533;28;20037;-83
2022/10/09 01:43:51;;;;;;;5.65;3.35;;;;;;;;;;4985279;28;20022;-83
2022/10/09 01:46:18;;;;;;;6.72;3.35;;;;;;;;;;4985913;28;20105;-83
2022/10/09 01:48:47;;;;;;;6.95;3.22;;;;;;;;;;4999661;28;20117;-83
2022/10/09 01:51:15;;;;;;;7.03;3.30;;;;;;;;;;4980702;28;20022;-83
2022/10/09 01:53:43;;;;;;;8.40;3.17;;;;;;;;;;4979759;28;20501;-83
2022/10/09 01:56:13;;;;;;;6.25;3.08;;;;;;;;;;4991372;28;20068;-83
2022/10/09 01:58:53;;;;;;;6.45;3.05;;;;;;;;;;5006106;28;20044;-83
2022/10/09 02:01:27;;;;;;;5.80;3.25;;;;;;;;;;4989736;28;20067;-83
2022/10/09 02:03:54;;;;;;;6.82;3.30;;;;;;;;;;4982827;28;20564;-84
2022/10/09 02:06:20;;;;;;;5.90;3.45;;;;;;;;;;5004539;28;20026;-83
2022/10/09 02:08:49;;;;;;;5.95;3.30;;;;;;;;;;4988082;28;20083;-83
2022/10/09 02:11:15;;;;;;;6.38;3.30;;;;;;;;;;5004918;28;20042;-83
2022/10/09 02:13:41;;;;;;;7.15;3.15;;;;;;;;;;5004093;28;20022;-83
2022/10/09 02:16:17;;;;;;;5.43;3.13;;;;;;;;;;4987588;28;20371;-83
2022/10/09 02:18:47;;;;;;;6.05;3.55;;;;;;;;;;4997168;28;20116;-83
2022/10/09 02:21:45;;;;;;;6.18;3.33;;;;;;;;;;5005495;28;20039;-83
2022/10/09 02:24:14;;;;;;;6.22;3.50;;;;;;;;;;4998474;28;20033;-83
2022/10/09 02:26:40;;;;;;;9.30;3.25;;;;;;;;;;5004978;28;20112;-83
2022/10/09 02:29:06;;;;;;;8.68;3.70;;;;;;;;;;4988189;28;20037;-83
2022/10/09 02:31:35;;;;;;;7.10;3.60;;;;;;;;;;5000216;28;20025;-83
2022/10/09 02:34:03;;;;;;;7.55;3.10;;;;;;;;;;5003438;28;20029;-83
2022/10/09 02:36:30;;;;;;;6.35;3.00;;;;;;;;;;5004342;28;20510;-83
2022/10/09 02:38:56;;;;;;;6.72;3.67;;;;;;;;;;5003432;28;20030;-83
2022/10/09 02:41:22;;;;;;;6.60;3.22;;;;;;;;;;4999639;28;20110;-83
2022/10/09 02:43:48;;;;;;;6.57;3.35;;;;;;;;;;5002719;28;20482;-83
2022/10/09 02:46:14;;;;;;;6.07;3.00;;;;;;;;;;4998980;28;20088;-83
2022/10/09 02:48:39;;;;;;;5.95;3.40;;;;;;;;;;4990643;28;20037;-83
2022/10/09 02:51:05;;;;;;;6.25;3.15;;;;;;;;;;4998940;28;20040;-83
2022/10/09 02:53:30;;;;;;;8.02;3.50;;;;;;;;;;4983664;28;20034;-83
2022/10/09 02:55:56;;;;;;;6.68;3.08;;;;;;;;;;4985469;28;20394;-83
2022/10/09 02:58:21;;;;;;;7.30;3.40;;;;;;;;;;4981515;28;20040;-83
2022/10/09 03:00:51;;;;;;;8.10;3.38;;;;;;;;;;4992357;28;20792;-83
2022/10/09 03:03:18;;;;;;;5.40;3.08;;;;;;;;;;5006827;28;20390;-83
2022/10/09 03:05:44;;;;;;;5.28;2.75;;;;;;;;;;4977161;28;20037;-83
2022/10/09 03:08:09;;;;;;;5.57;3.22;;;;;;;;;;4983957;28;20444;-83
2022/10/09 03:10:39;;;;;;;5.85;3.30;;;;;;;;;;4989282;28;20475;-83
2022/10/09 03:13:05;;;;;;;7.50;3.83;;;;;;;;;;4998621;28;20051;-83
2022/10/09 03:15:35;;;;;;;7.53;3.25;;;;;;;;;;5002243;28;20030;-83
2022/10/09 03:18:00;;;;;;;7.63;3.45;;;;;;;;;;5006378;28;20477;-83
2022/10/09 03:20:28;;;;;;;6.35;3.28;;;;;;;;;;5005728;28;20104;-84
2022/10/09 03:22:55;;;;;;;8.23;3.20;;;;;;;;;;5003393;28;20486;-83
2022/10/09 03:25:20;;;;;;;8.43;3.55;;;;;;;;;;4985846;28;20034;-83
2022/10/09 03:27:46;;;;;;;6.28;3.42;;;;;;;;;;4999357;28;21880;-83
2022/10/09 03:30:12;;;;;;;4.97;3.10;;;;;;;;;;5001771;28;20393;-83
2022/10/09 03:32:37;;;;;;;5.68;3.15;;;;;;;;;;4987406;28;20049;-83
2022/10/09 03:35:03;;;;;;;4.97;3.03;;;;;;;;;;4988279;28;20124;-83
2022/10/09 03:37:28;;;;;;;7.75;3.35;;;;;;;;;;5003879;28;20034;-83
2022/10/09 03:39:54;;;;;;;7.38;3.20;;;;;;;;;;5009154;28;20021;-83
2022/10/09 03:42:19;;;;;;;7.32;3.45;;;;;;;;;;4984915;28;20444;-83
2022/10/09 03:44:45;;;;;;;7.28;3.70;;;;;;;;;;4989453;28;20117;-83
2022/10/09 03:47:10;;;;;;;5.55;3.20;;;;;;;;;;4984891;28;20185;-83
2022/10/09 03:49:35;;;;;;;6.35;3.90;;;;;;;;;;5008100;28;20033;-83
2022/10/09 03:52:01;;;;;;;5.60;3.53;;;;;;;;;;5007393;28;20040;-83
2022/10/09 03:54:26;;;;;;;6.10;3.72;;;;;;;;;;4999106;28;20025;-83
2022/10/09 03:56:51;;;;;;;8.68;3.80;;;;;;;;;;4990714;28;20040;-83
2022/10/09 03:59:17;;;;;;;7.90;3.38;;;;;;;;;;4990999;28;20052;-83
2022/10/09 04:01:42;;;;;;;6.65;3.70;;;;;;;;;;4987297;28;20411;-83
2022/10/09 04:04:08;;;;;;;6.32;3.53;;;;;;;;;;5015630;28;20022;-83
2022/10/09 04:06:33;;;;;;;7.35;3.40;;;;;;;;;;5010493;28;20060;-83
2022/10/09 04:09:00;;;;;;;7.43;3.80;;;;;;;;;;4995978;28;20030;-83
2022/10/09 04:11:27;;;;;;;8.43;4.00;;;;;;;;;;5008218;28;20038;-83
2022/10/09 04:13:53;;;;;;;7.15;3.65;;;;;;;;;;5006050;28;20091;-84
2022/10/09 04:16:18;;;;;;;6.88;3.75;;;;;;;;;;4988435;28;20030;-83
2022/10/09 04:18:44;;;;;;;6.07;3.78;;;;;;;;;;5014419;28;20053;-83
2022/10/09 04:21:11;;;;;;;7.80;3.65;;;;;;;;;;5003097;28;20738;-83
2022/10/09 04:23:37;;;;;;;8.60;3.97;;;;;;;;;;4990438;28;20025;-83
2022/10/09 04:26:02;;;;;;;6.05;3.70;;;;;;;;;;4999743;28;20040;-83
2022/10/09 04:28:29;;;;;;;8.07;3.45;;;;;;;;;;5004805;28;20103;-83
2022/10/09 04:30:56;;;;;;;7.20;3.67;;;;;;;;;;4989522;28;20609;-83
2022/10/09 04:33:22;;;;;;;7.05;3.70;;;;;;;;;;5011863;28;20026;-83
2022/10/09 04:35:49;;;;;;;6.20;3.58;;;;;;;;;;5010317;28;20050;-83
2022/10/09 04:38:15;;;;;;;5.72;3.70;;;;;;;;;;4995139;28;20038;-83
2022/10/09 04:40:40;;;;;;;7.28;3.90;;;;;;;;;;4985833;28;20103;-83
2022/10/09 04:43:06;;;;;;;6.10;3.53;;;;;;;;;;4990680;28;20065;-83
2022/10/09 04:45:31;;;;;;;7.30;3.80;;;;;;;;;;5007563;28;20042;-83
2022/10/09 04:47:57;;;;;;;6.40;3.88;;;;;;;;;;5009889;28;20032;-83
2022/10/09 04:50:23;;;;;;;5.55;3.28;;;;;;;;;;4998093;28;20062;-83
2022/10/09 04:52:48;;;;;;;6.32;3.67;;;;;;;;;;4996731;28;20076;-83
2022/10/09 04:55:13;;;;;;;8.15;3.95;;;;;;;;;;4989059;28;20030;-83
2022/10/09 04:57:39;;;;;;;6.57;3.47;;;;;;;;;;4991509;28;20461;-83
2022/10/09 05:00:05;;;;;;;7.00;3.17;;;;;;;;;;5005655;28;20428;-84
2022/10/09 05:02:30;;;;;;;6.30;3.28;;;;;;;;;;4990453;28;20061;-83
2022/10/09 05:04:56;;;;;;;7.35;3.30;;;;;;;;;;4991707;28;20046;-83
2022/10/09 05:07:22;;;;;;;6.32;3.35;;;;;;;;;;4990432;28;20030;-83
2022/10/09 05:09:48;;;;;;;6.07;3.72;;;;;;;;;;5005193;28;20026;-83
2022/10/09 05:12:13;;;;;;;6.53;3.40;;;;;;;;;;4988405;28;20064;-83
2022/10/09 05:14:39;;;;;;;8.05;3.60;;;;;;;;;;5011092;28;20601;-83
2022/10/09 05:17:04;;;;;;;5.80;3.28;;;;;;;;;;4984717;28;20124;-83
2022/10/09 05:19:32;;;;;;;6.30;3.60;;;;;;;;;;5009296;28;20030;-83
2022/10/09 05:21:59;;;;;;;8.00;3.63;;;;;;;;;;4987695;28;20397;-83
2022/10/09 05:24:25;;;;;;;6.05;3.30;;;;;;;;;;4987023;28;20021;-83
2022/10/09 05:26:51;;;;;;;7.43;3.75;;;;;;;;;;5003893;28;20052;-83
2022/10/09 05:29:17;;;;;;;7.63;3.47;;;;;;;;;;5005357;28;20036;-83
2022/10/09 05:31:42;;;;;;;6.68;3.60;;;;;;;;;;4998347;28;20408;-83
2022/10/09 05:34:08;;;;;;;7.78;3.50;;;;;;;;;;4990687;28;20040;-83
2022/10/09 05:36:34;;;;;;;7.68;3.85;;;;;;;;;;4988188;28;20033;-83
2022/10/09 05:39:02;;;;;;;6.40;3.17;;;;;;;;;;5004661;28;20045;-83
2022/10/09 05:41:30;;;;;;;8.00;3.58;;;;;;;;;;4986363;28;20030;-83
2022/10/09 05:44:00;;;;;;;6.38;3.55;;;;;;;;;;4993302;28;20025;-83
2022/10/09 05:46:25;;;;;;;6.75;3.70;;;;;;;;;;4991326;28;20042;-84
2022/10/09 05:48:56;;;;;;;5.38;3.35;;;;;;;;;;5004533;28;20030;-83
2022/10/09 05:51:29;;;;;;;7.63;3.67;;;;;;;;;;4991585;28;20037;-83
2022/10/09 05:53:56;;;;;;;5.90;3.20;;;;;;;;;;4985048;28;20461;-83
2022/10/09 05:56:25;;;;;;;7.53;3.63;;;;;;;;;;5006057;28;20029;-82
2022/10/09 05:58:56;;;;;;;7.40;3.33;;;;;;;;;;5007709;28;20021;-83
2022/10/09 06:01:23;;;;;;;6.78;3.58;;;;;;;;;;5004247;28;20045;-83
2022/10/09 06:03:50;;;;;;;9.20;3.60;;;;;;;;;;4983393;28;20390;-83
2022/10/09 06:06:17;;;;;;;7.97;3.38;;;;;;;;;;4985037;28;20104;-83
2022/10/09 06:08:42;;;;;;;5.43;3.20;;;;;;;;;;4990610;28;20398;-82
2022/10/09 06:11:19;;;;;;;8.93;3.45;;;;;;;;;;4983838;28;20022;-83
2022/10/09 06:13:46;;;;;;;5.97;3.05;;;;;;;;;;4986195;28;20028;-83
2022/10/09 06:16:13;;;;;;;6.00;3.28;;;;;;;;;;4992016;28;20109;-82
2022/10/09 06:18:40;;;;;;;6.35;3.13;;;;;;;;;;5005332;28;20100;-83
2022/10/09 06:21:06;;;;;;;5.35;3.33;;;;;;;;;;4989712;28;20026;-83
2022/10/09 06:23:32;;;;;;;5.60;3.03;;;;;;;;;;4985266;28;20034;-83
2022/10/09 06:26:00;;;;;;;6.30;3.30;;;;;;;;;;4998663;28;20322;-83
2022/10/09 06:28:30;;;;;;;6.25;3.08;;;;;;;;;;5002420;28;20070;-83
2022/10/09 06:31:17;;;;;;;7.55;3.00;;;;;;;;;;4987746;28;20512;-83
2022/10/09 06:33:44;;;;;;;7.63;3.47;;;;;;;;;;5000500;28;20487;-83
2022/10/09 06:36:12;;;;;;;7.22;3.60;;;;;;;;;;4988303;28;20052;-83
2022/10/09 06:38:39;;;;;;;8.05;3.38;;;;;;;;;;4993608;28;20504;-83
2022/10/09 06:41:07;;;;;;;8.15;3.58;;;;;;;;;;4985687;28;21510;-83
2022/10/09 06:43:32;;;;;;;6.93;3.65;;;;;;;;;;4989024;28;20048;-83
2022/10/09 06:46:03;;;;;;;7.55;3.40;;;;;;;;;;4999912;28;20038;-83
2022/10/09 06:48:30;;;;;;;6.60;3.40;;;;;;;;;;4991912;28;20044;-83
2022/10/09 06:51:17;;;;;;;6.55;3.70;;;;;;;;;;5007181;28;20025;-83
2022/10/09 06:53:45;;;;;;;6.47;3.88;;;;;;;;;;5009256;28;20478;-83
2022/10/09 06:56:11;;;;;;;9.05;3.83;;;;;;;;;;4981326;28;20056;-83
2022/10/09 06:58:38;;;;;;;6.72;3.85;;;;;;;;;;5003754;28;20026;-83
2022/10/09 07:01:04;;;;;;;6.57;3.28;;;;;;;;;;5004621;28;20030;-83
2022/10/09 07:03:30;;;;;;;7.90;3.65;;;;;;;;;;4983370;28;20025;-83
2022/10/09 07:06:29;;;;;;;7.95;4.10;;;;;;;;;;4989425;28;20030;-83
2022/10/09 07:08:58;;;;;;;8.23;3.80;;;;;;;;;;4979746;28;20034;-83
2022/10/09 07:11:26;;;;;;;8.13;4.25;;;;;;;;;;5007731;28;20022;-83
2022/10/09 07:13:54;;;;;;;8.70;3.58;;;;;;;;;;4993910;28;20045;-82
2022/10/09 07:16:25;;;;;;;7.22;4.15;;;;;;;;;;4989714;28;20022;-83
2022/10/09 07:18:51;;;;;;;6.03;3.13;;;;;;;;;;4993426;28;20072;-83
2022/10/09 07:21:17;;;;;;;7.68;3.80;;;;;;;;;;4993995;28;20032;-83
2022/10/09 07:23:43;;;;;;;9.45;4.20;;;;;;;;;;4994390;28;20417;-83
2022/10/09 07:26:16;;;;;;;7.40;3.58;;;;;;;;;;5011338;28;20426;-82
2022/10/09 07:28:43;;;;;;;9.10;3.97;;;;;;;;;;4993989;28;20034;-83
2022/10/09 07:31:09;;;;;;;7.00;3.90;;;;;;;;;;4992781;28;20072;-82
2022/10/09 07:33:34;;;;;;;9.30;3.58;;;;;;;;;;4994176;28;20026;-83
2022/10/09 07:36:01;;;;;;;8.05;3.63;;;;;;;;;;5014208;28;20519;-82
2022/10/09 07:38:27;;;;;;;9.13;3.85;;;;;;;;;;5010030;28;20034;-82
2022/10/09 07:40:53;;;;;;;8.38;4.07;;;;;;;;;;4995304;28;20121;-82
2022/10/09 07:43:20;;;;;;;9.82;3.90;;;;;;;;;;5007499;28;20018;-82
2022/10/09 07:45:46;;;;;;;10.75;4.00;;;;;;;;;;5003943;28;20038;-82
2022/10/09 07:48:11;;;;;;;8.85;3.85;;;;;;;;;;5004954;28;20029;-82
2022/10/09 07:50:37;;;;;;;10.98;3.80;;;;;;;;;;4988147;28;20022;-82
2022/10/09 07:53:02;;;;;;;9.90;3.75;;;;;;;;;;4991162;28;20022;-82
2022/10/09 07:55:27;;;;;;;10.00;4.50;;;;;;;;;;4990002;28;20108;-82
2022/10/09 07:57:53;;;;;;;8.00;4.45;;;;;;;;;;4996210;28;20022;-82
2022/10/09 08:00:18;;;;;;;7.13;4.03;;;;;;;;;;5005458;28;20109;-82
2022/10/09 08:02:44;;;;;;;9.05;4.00;;;;;;;;;;5006819;28;20032;-82
2022/10/09 08:05:09;;;;;;;7.97;4.00;;;;;;;;;;5004637;28;20434;-82
2022/10/09 08:07:35;;;;;;;8.30;3.88;;;;;;;;;;4992657;28;20121;-82
2022/10/09 08:10:01;;;;;;;8.15;4.28;;;;;;;;;;4992213;28;20043;-82
2022/10/09 08:12:26;;;;;;;9.15;4.15;;;;;;;;;;5007167;28;20038;-83
2022/10/09 08:14:52;;;;;;;8.68;4.30;;;;;;;;;;4989976;28;20041;-82
2022/10/09 08:17:17;;;;;;;7.68;4.10;;;;;;;;;;5007685;28;20072;-82
2022/10/09 08:19:42;;;;;;;8.75;4.03;;;;;;;;;;4999125;28;20543;-82
2022/10/09 08:22:08;;;;;;;7.63;4.32;;;;;;;;;;5005144;28;20022;-82
2022/10/09 08:24:33;;;;;;;8.85;3.90;;;;;;;;;;5004744;28;20069;-82
2022/10/09 08:26:58;;;;;;;10.10;4.22;;;;;;;;;;5004558;28;20041;-82
2022/10/09 08:29:24;;;;;;;7.30;3.95;;;;;;;;;;5002830;28;20033;-82
2022/10/09 08:31:50;;;;;;;9.25;4.18;;;;;;;;;;5009589;28;20029;-82
2022/10/09 08:34:17;;;;;;;7.57;4.10;;;;;;;;;;5005810;28;20018;-83
2022/10/09 08:36:42;;;;;;;7.28;3.92;;;;;;;;;;5018847;28;20033;-82
2022/10/09 08:39:09;;;;;;;9.50;4.20;;;;;;;;;;5012757;28;20032;-82
2022/10/09 08:41:46;;;;;;;9.63;4.60;;;;;;;;;;4997962;28;20033;-83
2022/10/09 08:44:28;;;;;;;8.40;4.95;;;;;;;;;;5005436;28;20038;-82
2022/10/09 08:47:18;;;;;;;6.20;4.30;;;;;;;;;;5009578;28;20513;-82
2022/10/09 08:50:02;;;;;;;8.35;4.40;;;;;;;;;;4995471;28;20393;-82
2022/10/09 08:52:37;;;;;;;10.73;5.22;;;;;;;;;;5008753;28;20022;-82
2022/10/09 08:55:24;;;;;;;7.95;4.57;;;;;;;;;;5012126;28;20029;-83
2022/10/09 08:57:55;;;;;;;7.50;4.57;;;;;;;;;;5007787;28;20516;-83
2022/10/09 09:00:26;;;;;;;7.43;4.75;;;;;;;;;;5009198;28;20113;-82
2022/10/09 09:03:06;;;;;;;7.30;4.82;;;;;;;;;;4995178;28;20481;-83
2022/10/09 09:05:58;;;;;;;8.32;4.75;;;;;;;;;;4992404;28;20073;-83
2022/10/09 09:08:46;;;;;;;7.15;4.32;;;;;;;;;;5010356;28;20037;-83
2022/10/09 09:11:27;;;;;;;7.75;4.70;;;;;;;;;;5005515;28;20088;-82
2022/10/09 09:14:22;;;;;;;8.63;4.13;;;;;;;;;;4991411;28;20030;-83
2022/10/09 09:16:57;;;;;;;9.35;4.50;;;;;;;;;;4989176;28;20084;-82
2022/10/09 09:19:39;;;;;;;8.65;4.70;;;;;;;;;;4993599;28;20103;-82
2022/10/09 09:22:10;;;;;;;10.55;4.72;;;;;;;;;;5003542;28;20057;-83
2022/10/09 09:24:41;;;;;;;7.78;4.75;;;;;;;;;;5010658;28;20030;-83
2022/10/09 09:27:14;;;;;;;10.80;4.50;;;;;;;;;;4992649;28;20056;-82
2022/10/09 09:29:49;;;;;;;7.55;4.25;;;;;;;;;;4996891;28;20524;-82
2022/10/09 09:32:22;;;;;;;11.63;3.95;;;;;;;;;;5011174;28;20030;-82
2022/10/09 09:34:48;;;;;;;11.52;4.20;;;;;;;;;;5008705;28;20516;-82
2022/10/09 09:37:14;;;;;;;8.40;4.20;;;;;;;;;;4999565;28;20108;-82
2022/10/09 09:39:40;;;;;;;8.45;3.95;;;;;;;;;;4998397;28;20109;-83
2022/10/09 09:42:38;;;;;;;10.48;4.50;;;;;;;;;;4995736;28;20022;-83
2022/10/09 09:45:09;;;;;;;9.27;4.22;;;;;;;;;;4937855;28;20046;-82
2022/10/09 09:47:40;;;;;;;8.02;4.28;;;;;;;;;;4989467;28;20053;-82
2022/10/09 09:50:06;;;;;;;11.15;4.47;;;;;;;;;;5008415;28;20072;-82
2022/10/09 09:52:36;;;;;;;8.38;3.90;;;;;;;;;;5003195;28;20033;-81
2022/10/09 09:55:03;;;;;;;10.43;3.90;;;;;;;;;;4987367;28;20021;-81
2022/10/09 09:57:39;;;;;;;9.10;4.35;;;;;;;;;;4988235;28;20695;-83
2022/10/09 10:00:26;;;;;;;8.05;3.53;;;;;;;;;;4985747;28;20029;-83
2022/10/09 10:03:24;;;;;;;5.72;3.38;;;;;;;;;;4991819;28;20069;-83
2022/10/09 10:05:50;;;;;;;7.60;3.13;;;;;;;;;;4985541;28;20041;-82
2022/10/09 10:08:21;;;;;;;5.25;2.97;;;;;;;;;;5010374;28;20061;-82
2022/10/09 10:10:48;;;;;;;5.95;3.15;;;;;;;;;;4985889;28;20026;-83
2022/10/09 10:13:19;;;;;;;5.22;2.78;;;;;;;;;;5010917;28;20025;-81
2022/10/09 10:15:51;;;;;;;9.35;3.25;;;;;;;;;;4988001;28;20030;-82
2022/10/09 10:18:18;;;;;;;6.15;3.22;;;;;;;;;;4991399;28;20033;-81
2022/10/09 10:20:47;;;;;;;5.95;3.17;;;;;;;;;;5010067;28;20030;-82
2022/10/09 10:24:04;;;;;;;8.38;3.03;;;;;;;;;;5011115;28;20030;-82
2022/10/09 10:26:48;;;;;;;6.38;3.30;;;;;;;;;;4987242;28;20137;-83
2022/10/09 10:29:39;;;;;;;5.97;2.97;;;;;;;;;;4996389;28;20117;-82
2022/10/09 10:32:22;;;;;;;5.80;3.05;;;;;;;;;;4992454;28;20048;-83
2022/10/09 10:35:13;;;;;;;6.45;3.45;;;;;;;;;;4992535;28;20060;-83
2022/10/09 10:38:08;;;;;;;7.45;3.20;;;;;;;;;;5001318;28;20100;-82
2022/10/09 10:40:43;;;;;;;6.03;3.40;;;;;;;;;;5008880;28;20034;-83
2022/10/09 10:43:37;;;;;;;6.97;3.42;;;;;;;;;;4992566;28;20120;-83
2022/10/09 10:46:21;;;;;;;6.32;3.42;;;;;;;;;;4990261;28;20400;-83
2022/10/09 10:49:37;;;;;;;5.57;3.15;;;;;;;;;;4990172;28;20493;-83
2022/10/09 10:56:38;;;;;;;5.05;3.30;;;;;;;;;;5003534;28;20417;-83
2022/10/09 10:59:09;;;;;;;6.15;2.92;;;;;;;;;;4973919;28;20041;-83
2022/10/09 11:01:53;;;;;;;5.47;3.30;;;;;;;;;;4989186;28;20547;-81
2022/10/09 11:04:53;;;;;;;7.07;3.47;;;;;;;;;;4988964;28;20525;-82
2022/10/09 11:07:38;;;;;;;5.97;3.15;;;;;;;;;;4994034;28;20450;-82
2022/10/09 11:10:56;;;;;;;9.02;3.25;;;;;;;;;;4991186;28;20092;-82
2022/10/09 11:13:55;;;;;;;8.10;3.30;;;;;;;;;;4959065;28;20037;-82
2022/10/09 11:17:09;;;;;;;7.18;3.50;;;;;;;;;;5006573;28;20049;-83
2022/10/09 11:19:58;;;;;;;;;;;;;;;;;;4984147;28;20034;-83
2022/10/09 11:23:17;;;;;;;6.57;3.50;;;;;;;;;;4990091;28;20052;-82
2022/10/09 11:26:22;;;;;;;5.95;3.00;;;;;;;;;;4946194;28;20037;-82
2022/10/09 11:29:15;;;;;;;6.43;2.75;;;;;;;;;;5009877;28;20108;-83
2022/10/09 11:32:13;;;;;;;5.20;2.65;;;;;;;;;;4991756;28;20044;-82
2022/10/09 11:34:53;;;;;;;5.75;2.85;;;;;;;;;;4991320;28;20025;-82
2022/10/09 11:37:37;;;;;;;4.80;2.63;;;;;;;;;;5005623;28;20041;-82
2022/10/09 11:40:54;;;;;;;7.47;2.72;;;;;;;;;;4998923;28;20486;-83
2022/10/09 11:44:16;;;;;;;6.63;2.67;;;;;;;;;;4962010;28;20033;-83
2022/10/09 11:47:44;;;;;;;5.50;2.28;;;;;;;;;;4995894;28;20045;-83
2022/10/09 12:37:35;;;;;;;5.13;1.83;;;;;;;;;;519247;26;20391;-82
2022/10/09 12:40:16;;;;;;;4.15;1.90;;;;;;;;;;4962232;28;20054;-83
2022/10/09 12:42:43;;;;;;;3.17;1.42;;;;;;;;;;4970623;28;20050;-83
2022/10/09 12:45:41;;;;;;;4.93;1.90;;;;;;;;;;4970745;28;20038;-83
2022/10/09 12:48:11;;;;;;;5.05;1.67;;;;;;;;;;4943280;28;20061;-83
2022/10/09 12:50:36;;;;;;;4.57;1.83;;;;;;;;;;4971605;28;20034;-83
2022/10/09 12:53:09;;;;;;;3.83;1.55;;;;;;;;;;4959454;28;20046;-83
2022/10/09 12:55:41;;;;;;;7.70;1.83;;;;;;;;;;4948575;28;20060;-84
2022/10/09 12:58:28;;;;;;;6.20;1.80;;;;;;;;;;4975737;28;20046;-83
2022/10/09 13:01:03;;;;;;;3.65;1.65;;;;;;;;;;4967367;28;20030;-83
2022/10/09 13:03:31;;;;;;;5.22;1.80;;;;;;;;;;4969302;28;20437;-83
2022/10/09 13:05:57;;;;;;;5.28;1.85;;;;;;;;;;4965811;28;20038;-83
2022/10/09 13:08:26;;;;;;;7.78;1.83;;;;;;;;;;4970288;28;20159;-84
2022/10/09 13:11:30;;;;;;;;;;;;;;;;;;;;;
2022/10/09 13:14:00;;;;;;;4.07;1.52;;;;;;;;;;4964388;28;20046;-83
2022/10/09 13:16:56;;;;;;;4.60;1.20;;;;;;;;;;4968259;28;20038;-83
2022/10/09 13:19:29;;;;;;;7.10;1.42;;;;;;;;;;4948483;28;20034;-83
2022/10/09 13:22:05;;;;;;;3.50;1.87;;;;;;;;;;4953017;28;20513;-84
2022/10/09 13:24:34;;;;;;;3.08;1.30;;;;;;;;;;4970184;28;20031;-83
2022/10/09 13:27:02;;;;;;;5.10;1.77;;;;;;;;;;4953510;28;20026;-83
2022/10/09 13:29:33;;;;;;;3.47;1.45;;;;;;;;;;4963980;28;20548;-83
2022/10/09 13:32:09;;;;;;;;;;;;;;;;;;;;;
2022/10/09 13:34:35;;;;;;;3.78;1.45;;;;;;;;;;4959946;28;20039;-83
2022/10/09 13:37:11;;;;;;;4.30;1.42;;;;;;;;;;4962965;28;20030;-83
2022/10/09 13:39:50;;;;;;;;;;;;;;;;;;;;;
2022/10/09 13:42:28;;;;;;;4.88;1.70;;;;;;;;;;4967831;28;20030;-83
2022/10/09 13:45:04;;;;;;;3.50;1.30;;;;;;;;;;4967842;28;21143;-83
2022/10/09 13:47:40;;;;;;;;;;;;;;;;;;;;;
2022/10/09 13:50:06;;;;;;;2.10;1.40;;;;;;;;;;4975788;28;20394;-83
2022/10/09 13:52:31;;;;;;;3.65;1.50;;;;;;;;;;4950081;28;20030;-84
2022/10/09 13:54:57;;;;;;;4.47;1.80;;;;;;;;;;4967089;28;20031;-84
2022/10/09 14:23:27;;;;;;;;;;;;;;;;;;;;;
2022/10/09 14:49:10;;;;;;;;;;;;;;;;;;;;;
2022/10/09 15:03:53;;;;;;;;;;;;;;;;;;;;;
2022/10/09 15:07:09;;;;;;;;;;;;;;;;;;;;;
2022/10/09 15:10:36;;;;;;;;;;;;;;;;;;;;;
2022/10/09 15:17:40;;;;;;;6.43;1.73;;;;;;;;;;4682053;30;20423;-83
2022/10/09 15:24:24;;;;;;;4.65;1.52;;;;;;;;;;4714611;30;19926;-83
2022/10/09 15:34:16;;;;;;;4.60;2.08;;;;;;;;;;4746374;30;20040;-83
2022/10/09 15:37:10;;;;;;;3.70;1.77;;;;;;;;;;4814038;29;20048;-83
2022/10/09 15:54:05;;;;;;;7.38;1.90;;;;;;;;;;4815638;29;20033;-82
2022/10/09 15:56:30;;;;;;;5.20;2.20;;;;;;;;;;4815811;29;20121;-83
2022/10/09 15:58:57;;;;;;;6.35;1.90;;;;;;;;;;4822729;29;20121;-85
2022/10/09 16:01:33;;;;;;;4.28;1.88;;;;;;;;;;4900459;29;20046;-83
2022/10/09 16:04:01;;;;;;;3.42;1.90;;;;;;;;;;4929538;28;20040;-83
2022/10/09 16:06:32;;;;;;;5.03;1.95;;;;;;;;;;4947626;28;20081;-83
2022/10/09 16:09:06;;;;;;;4.78;1.90;;;;;;;;;;4950858;28;20110;-83
2022/10/09 16:11:33;;;;;;;4.97;1.70;;;;;;;;;;4933384;29;20125;-83
2022/10/09 16:13:59;;;;;;;6.20;1.70;;;;;;;;;;4930591;28;20117;-83
2022/10/09 16:16:26;;;;;;;4.15;2.10;;;;;;;;;;4947616;28;20560;-83
2022/10/09 16:18:52;;;;;;;4.60;2.00;;;;;;;;;;4950191;28;20034;-83
2022/10/09 16:21:28;;;;;;;6.30;1.90;;;;;;;;;;4948229;28;20023;-83
2022/10/09 16:24:11;;;;;;;3.08;1.67;;;;;;;;;;4920701;29;20094;-83
2022/10/09 16:29:50;;;;;;;5.05;1.98;;;;;;;;;;4937101;29;20615;-83
2022/10/09 16:32:48;;;;;;;;;;;;;;;;;;;;;
2022/10/09 16:35:20;;;;;;;4.95;2.35;;;;;;;;;;4946228;28;20932;-83
2022/10/09 16:37:59;;;;;;;3.97;1.92;;;;;;;;;;4925294;28;20043;-83
2022/10/09 16:40:47;;;;;;;5.32;1.85;;;;;;;;;;4931638;29;20031;-83
2022/10/09 16:43:31;;;;;;;4.25;1.90;;;;;;;;;;4924105;29;20070;-83
2022/10/09 16:46:30;;;;;;;4.65;1.70;;;;;;;;;;4942185;28;20043;-83
2022/10/09 16:49:20;;;;;;;5.78;2.10;;;;;;;;;;4918864;29;20495;-83
2022/10/09 16:51:46;;;;;;;4.38;1.67;;;;;;;;;;4937184;28;20110;-83
2022/10/09 16:54:23;;;;;;;3.08;1.73;;;;;;;;;;4940697;29;20031;-83
2022/10/09 16:56:51;;;;;;;3.50;1.75;;;;;;;;;;4929610;29;20506;-83
2022/10/09 16:59:33;;;;;;;3.58;1.83;;;;;;;;;;4934580;28;20027;-83
2022/10/09 17:02:18;;;;;;;5.60;2.25;;;;;;;;;;4950400;28;20404;-84
2022/10/09 17:04:47;;;;;;;5.40;2.60;;;;;;;;;;4944516;28;20035;-83
2022/10/09 17:07:21;;;;;;;3.90;2.10;;;;;;;;;;4947619;28;20126;-83
2022/10/09 17:10:05;;;;;;;7.70;2.70;;;;;;;;;;4923496;28;20043;-84
2022/10/09 17:12:32;;;;;;;;;;;;;;;;;;4932581;28;20441;-83
2022/10/09 17:15:11;;;;;;;4.60;2.30;;;;;;;;;;4927296;28;19918;-84
2022/10/09 17:18:45;;;;;;;6.70;2.60;;;;;;;;;;4927421;28;20047;-83
2022/10/09 17:24:16;;;;;;;5.68;2.40;;;;;;;;;;4936355;28;19930;-83
2022/10/09 17:26:42;;;;;;;4.55;2.30;;;;;;;;;;4940585;28;20028;-83
2022/10/09 17:29:14;;;;;;;4.40;2.30;;;;;;;;;;4944291;28;20042;-84
2022/10/09 17:39:05;;;;;;;;;;;;;;;;;;;;;
2022/10/09 17:42:34;;;;;;;5.00;2.72;;;;;;;;;;4867601;29;20032;-83
2022/10/09 17:48:32;;;;;;;6.55;3.13;;;;;;;;;;4872048;29;20488;-83
2022/10/09 17:51:27;;;;;;;6.50;3.20;;;;;;;;;;4857637;29;20048;-83
2022/10/09 17:57:11;;;;;;;7.18;3.47;;;;;;;;;;4871751;29;20443;-83
2022/10/09 17:59:48;;;;;;;5.32;2.85;;;;;;;;;;4867814;29;20493;-83
2022/10/09 18:05:49;;;;;;;5.35;2.50;;;;;;;;;;4843472;29;20132;-82
2022/10/09 18:08:27;;;;;;;3.97;2.25;;;;;;;;;;4864209;29;20044;-82
2022/10/09 18:11:24;;;;;;;4.85;2.45;;;;;;;;;;4877526;29;20552;-82
2022/10/09 18:17:06;;;;;;;5.25;2.40;;;;;;;;;;4886174;29;20132;-83
2022/10/09 18:19:54;;;;;;;5.95;2.40;;;;;;;;;;4886588;29;20044;-83